00:56 Bike Schwaz - Kundl
Ort Schwaz Datum 18.11.2010 07:08:49
Kategorie MTB
Distanz 26,71 Kilometer Steigung 25,5 Meter Gefälle -38,0 Meter
Gesamt Zeit 00:55:58 Aktiv 00:55:58 Pause 00:00:00
Durchs. Tempo 28,6 km/h Tempo max. 38,9 km/h Tempo min. 15,1 km/h
Kalorien 0 Durchs. HF 150 BPM HF max. 161 BPM
Wetter 13 °C ChanceRain
Ausrüstung Schwalbe - Nobby Nic vorne
Schwalbe - Racing Ralph hinten
Shimano - HG-93 XT
Specialized - BG S-Works MTB
Specialized - Stumpjumper Comp
SwissStop - Disc17 Avid Juicy
Notiz Schwaz - Kundl ... 2,5° beim Start, trocken, tw. leichter Rueckenwind ... garmin connect
Splits
Distanz (km) Gesamt Zeit Split Zeit Split Tempo Split Tempo Höhenprofil (m)
1,00 00:02:22 00:02:22 00:02:22 25,4 5,00
2,00 00:04:19 00:01:57 00:01:57 30,8 0,00
3,00 00:06:20 00:02:01 00:02:01 29,8 -0,03
4,00 00:08:58 00:02:38 00:02:38 22,8 3,72
5,00 00:10:40 00:01:42 00:01:42 35,3 -13,69
6,00 00:12:56 00:02:16 00:02:16 26,5 11,59
7,00 00:15:22 00:02:26 00:02:26 24,7 13,90
8,00 00:17:24 00:02:02 00:02:02 29,5 -32,49
9,00 00:19:18 00:01:54 00:01:54 31,6 -1,99
10,00 00:21:11 00:01:53 00:01:53 31,9 0,00
11,00 00:23:06 00:01:55 00:01:55 31,3 -1,34
12,00 00:25:08 00:02:02 00:02:02 29,5 1,34
13,00 00:27:33 00:02:25 00:02:25 24,8 0,09
14,00 00:29:41 00:02:08 00:02:08 28,1 -3,74
15,00 00:31:42 00:02:01 00:02:01 29,8 -1,35
16,00 00:33:44 00:02:02 00:02:02 29,5 -1,00
17,00 00:35:51 00:02:07 00:02:07 28,3 -1,00
18,00 00:37:55 00:02:04 00:02:04 29,0 4,26
19,00 00:40:01 00:02:06 00:02:06 28,6 -4,09
20,00 00:42:01 00:02:00 00:02:00 30,0 -2,16
21,00 00:43:58 00:01:57 00:01:57 30,8 -1,00
22,00 00:46:00 00:02:02 00:02:02 29,5 0,00
23,00 00:48:04 00:02:04 00:02:04 29,0 0,00
24,00 00:50:05 00:02:01 00:02:01 29,8 0,00
25,00 00:52:06 00:02:01 00:02:01 29,8 0,00
26,00 00:54:11 00:02:05 00:02:05 28,8 -1,00